sensor_id;sensor_type;location;lat;lon;timestamp;P1;durP1;ratioP1;P2;durP2;ratioP2
75698;SDS011;64313;51.018;13.742;2023-04-24T00:00:54;5.97;;;2.42;;
75698;SDS011;64313;51.018;13.742;2023-04-24T00:03:21;6.10;;;2.80;;
75698;SDS011;64313;51.018;13.742;2023-04-24T00:05:50;4.55;;;2.20;;
75698;SDS011;64313;51.018;13.742;2023-04-24T00:08:16;5.45;;;2.35;;
75698;SDS011;64313;51.018;13.742;2023-04-24T00:10:42;4.88;;;2.17;;
75698;SDS011;64313;51.018;13.742;2023-04-24T00:13:07;5.60;;;2.50;;
75698;SDS011;64313;51.018;13.742;2023-04-24T00:15:32;5.57;;;2.30;;
75698;SDS011;64313;51.018;13.742;2023-04-24T00:17:58;6.68;;;2.40;;
75698;SDS011;64313;51.018;13.742;2023-04-24T00:20:23;5.50;;;2.45;;
75698;SDS011;64313;51.018;13.742;2023-04-24T00:22:50;5.63;;;2.30;;
75698;SDS011;64313;51.018;13.742;2023-04-24T00:25:15;5.43;;;2.92;;
75698;SDS011;64313;51.018;13.742;2023-04-24T00:27:41;4.70;;;2.40;;
75698;SDS011;64313;51.018;13.742;2023-04-24T00:30:06;6.03;;;2.65;;
75698;SDS011;64313;51.018;13.742;2023-04-24T00:32:32;6.18;;;2.38;;
75698;SDS011;64313;51.018;13.742;2023-04-24T00:34:57;4.85;;;2.45;;
75698;SDS011;64313;51.018;13.742;2023-04-24T00:37:22;5.05;;;2.47;;
75698;SDS011;64313;51.018;13.742;2023-04-24T00:39:48;5.20;;;2.58;;
75698;SDS011;64313;51.018;13.742;2023-04-24T00:42:13;4.97;;;2.20;;
75698;SDS011;64313;51.018;13.742;2023-04-24T00:44:39;5.68;;;2.50;;
75698;SDS011;64313;51.018;13.742;2023-04-24T00:47:05;5.20;;;2.50;;
75698;SDS011;64313;51.018;13.742;2023-04-24T00:49:30;5.97;;;2.35;;
75698;SDS011;64313;51.018;13.742;2023-04-24T00:51:56;5.07;;;2.20;;
75698;SDS011;64313;51.018;13.742;2023-04-24T00:54:24;5.80;;;2.28;;
75698;SDS011;64313;51.018;13.742;2023-04-24T00:56:51;5.75;;;2.20;;
75698;SDS011;64313;51.018;13.742;2023-04-24T00:59:16;5.53;;;2.15;;
75698;SDS011;64313;51.018;13.742;2023-04-24T01:01:43;5.78;;;2.38;;
75698;SDS011;64313;51.018;13.742;2023-04-24T01:04:09;5.07;;;2.33;;
75698;SDS011;64313;51.018;13.742;2023-04-24T01:06:37;6.07;;;2.50;;
75698;SDS011;64313;51.018;13.742;2023-04-24T01:09:04;6.13;;;2.35;;
75698;SDS011;64313;51.018;13.742;2023-04-24T01:11:30;6.43;;;2.40;;
75698;SDS011;64313;51.018;13.742;2023-04-24T01:13:56;5.15;;;2.35;;
75698;SDS011;64313;51.018;13.742;2023-04-24T01:16:22;5.22;;;2.35;;
75698;SDS011;64313;51.018;13.742;2023-04-24T01:18:47;4.55;;;2.13;;
75698;SDS011;64313;51.018;13.742;2023-04-24T01:21:13;5.03;;;2.30;;
75698;SDS011;64313;51.018;13.742;2023-04-24T01:23:41;4.90;;;2.30;;
75698;SDS011;64313;51.018;13.742;2023-04-24T01:26:09;4.13;;;2.10;;
75698;SDS011;64313;51.018;13.742;2023-04-24T01:28:34;5.28;;;2.53;;
75698;SDS011;64313;51.018;13.742;2023-04-24T01:30:59;5.45;;;2.50;;
75698;SDS011;64313;51.018;13.742;2023-04-24T01:33:25;4.55;;;2.35;;
75698;SDS011;64313;51.018;13.742;2023-04-24T01:35:50;5.57;;;2.50;;
75698;SDS011;64313;51.018;13.742;2023-04-24T01:38:16;5.70;;;2.65;;
75698;SDS011;64313;51.018;13.742;2023-04-24T01:40:41;4.93;;;2.83;;
75698;SDS011;64313;51.018;13.742;2023-04-24T01:43:06;5.68;;;2.55;;
75698;SDS011;64313;51.018;13.742;2023-04-24T01:45:32;5.65;;;2.83;;
75698;SDS011;64313;51.018;13.742;2023-04-24T01:47:57;5.20;;;2.30;;
75698;SDS011;64313;51.018;13.742;2023-04-24T01:50:24;5.30;;;2.60;;
75698;SDS011;64313;51.018;13.742;2023-04-24T01:52:49;6.00;;;2.60;;
75698;SDS011;64313;51.018;13.742;2023-04-24T01:55:14;4.90;;;2.55;;
75698;SDS011;64313;51.018;13.742;2023-04-24T01:57:44;6.40;;;2.65;;
75698;SDS011;64313;51.018;13.742;2023-04-24T02:00:09;5.10;;;2.30;;
75698;SDS011;64313;51.018;13.742;2023-04-24T02:02:39;6.10;;;3.22;;
75698;SDS011;64313;51.018;13.742;2023-04-24T02:05:06;5.10;;;2.45;;
75698;SDS011;64313;51.018;13.742;2023-04-24T02:07:35;5.25;;;2.50;;
75698;SDS011;64313;51.018;13.742;2023-04-24T02:10:00;5.25;;;2.40;;
75698;SDS011;64313;51.018;13.742;2023-04-24T02:12:27;6.43;;;2.40;;
75698;SDS011;64313;51.018;13.742;2023-04-24T02:14:52;5.68;;;2.65;;
75698;SDS011;64313;51.018;13.742;2023-04-24T02:17:17;6.32;;;2.80;;
75698;SDS011;64313;51.018;13.742;2023-04-24T02:19:44;4.75;;;2.30;;
75698;SDS011;64313;51.018;13.742;2023-04-24T02:22:09;5.95;;;2.58;;
75698;SDS011;64313;51.018;13.742;2023-04-24T02:24:35;5.80;;;2.67;;
75698;SDS011;64313;51.018;13.742;2023-04-24T02:27:01;5.90;;;2.75;;
75698;SDS011;64313;51.018;13.742;2023-04-24T02:29:27;5.57;;;2.58;;
75698;SDS011;64313;51.018;13.742;2023-04-24T02:31:53;5.07;;;2.42;;
75698;SDS011;64313;51.018;13.742;2023-04-24T02:34:18;4.78;;;2.42;;
75698;SDS011;64313;51.018;13.742;2023-04-24T02:36:43;6.20;;;2.60;;
75698;SDS011;64313;51.018;13.742;2023-04-24T02:39:09;5.10;;;2.47;;
75698;SDS011;64313;51.018;13.742;2023-04-24T02:41:34;5.10;;;2.60;;
75698;SDS011;64313;51.018;13.742;2023-04-24T02:43:59;6.75;;;2.75;;
75698;SDS011;64313;51.018;13.742;2023-04-24T02:46:25;6.53;;;2.70;;
75698;SDS011;64313;51.018;13.742;2023-04-24T02:48:51;5.60;;;2.55;;
75698;SDS011;64313;51.018;13.742;2023-04-24T02:51:16;5.45;;;2.70;;
75698;SDS011;64313;51.018;13.742;2023-04-24T02:53:41;5.03;;;2.60;;
75698;SDS011;64313;51.018;13.742;2023-04-24T02:56:07;5.07;;;2.50;;
75698;SDS011;64313;51.018;13.742;2023-04-24T02:58:32;5.60;;;2.90;;
75698;SDS011;64313;51.018;13.742;2023-04-24T03:00:57;5.43;;;2.80;;
75698;SDS011;64313;51.018;13.742;2023-04-24T03:03:23;6.28;;;2.72;;
75698;SDS011;64313;51.018;13.742;2023-04-24T03:05:49;5.07;;;2.65;;
75698;SDS011;64313;51.018;13.742;2023-04-24T03:08:15;5.80;;;2.90;;
75698;SDS011;64313;51.018;13.742;2023-04-24T03:10:41;6.10;;;2.70;;
75698;SDS011;64313;51.018;13.742;2023-04-24T03:13:07;5.25;;;2.58;;
75698;SDS011;64313;51.018;13.742;2023-04-24T03:15:33;5.07;;;2.47;;
75698;SDS011;64313;51.018;13.742;2023-04-24T03:17:58;6.03;;;2.78;;
75698;SDS011;64313;51.018;13.742;2023-04-24T03:20:24;5.15;;;2.47;;
75698;SDS011;64313;51.018;13.742;2023-04-24T03:22:49;5.43;;;2.67;;
75698;SDS011;64313;51.018;13.742;2023-04-24T03:25:15;4.75;;;2.60;;
75698;SDS011;64313;51.018;13.742;2023-04-24T03:27:40;5.80;;;2.25;;
75698;SDS011;64313;51.018;13.742;2023-04-24T03:30:16;5.30;;;2.05;;
75698;SDS011;64313;51.018;13.742;2023-04-24T03:32:49;5.70;;;2.53;;
75698;SDS011;64313;51.018;13.742;2023-04-24T03:35:20;5.18;;;2.45;;
75698;SDS011;64313;51.018;13.742;2023-04-24T03:37:47;6.03;;;2.20;;
75698;SDS011;64313;51.018;13.742;2023-04-24T03:40:35;6.45;;;2.42;;
75698;SDS011;64313;51.018;13.742;2023-04-24T03:43:04;5.95;;;2.28;;
75698;SDS011;64313;51.018;13.742;2023-04-24T03:45:30;6.45;;;2.30;;
75698;SDS011;64313;51.018;13.742;2023-04-24T03:47:56;4.60;;;1.92;;
75698;SDS011;64313;51.018;13.742;2023-04-24T03:50:21;4.45;;;2.05;;
75698;SDS011;64313;51.018;13.742;2023-04-24T03:52:47;4.20;;;1.65;;
75698;SDS011;64313;51.018;13.742;2023-04-24T03:55:22;4.15;;;1.60;;
75698;SDS011;64313;51.018;13.742;2023-04-24T03:57:47;3.95;;;1.80;;
75698;SDS011;64313;51.018;13.742;2023-04-24T04:00:20;6.00;;;1.92;;
75698;SDS011;64313;51.018;13.742;2023-04-24T04:02:52;4.30;;;1.60;;
75698;SDS011;64313;51.018;13.742;2023-04-24T04:05:17;4.13;;;1.50;;
75698;SDS011;64313;51.018;13.742;2023-04-24T04:07:43;4.90;;;1.45;;
75698;SDS011;64313;51.018;13.742;2023-04-24T04:10:08;4.38;;;1.40;;
75698;SDS011;64313;51.018;13.742;2023-04-24T04:12:35;3.80;;;1.30;;
75698;SDS011;64313;51.018;13.742;2023-04-24T04:15:01;4.75;;;1.10;;
75698;SDS011;64313;51.018;13.742;2023-04-24T04:17:26;3.88;;;1.13;;
75698;SDS011;64313;51.018;13.742;2023-04-24T04:19:53;4.32;;;1.20;;
75698;SDS011;64313;51.018;13.742;2023-04-24T04:22:18;3.60;;;1.17;;
75698;SDS011;64313;51.018;13.742;2023-04-24T04:24:47;3.35;;;1.02;;
75698;SDS011;64313;51.018;13.742;2023-04-24T04:27:13;2.75;;;1.10;;
75698;SDS011;64313;51.018;13.742;2023-04-24T04:29:56;2.53;;;1.10;;
75698;SDS011;64313;51.018;13.742;2023-04-24T04:32:21;2.90;;;1.10;;
75698;SDS011;64313;51.018;13.742;2023-04-24T04:34:47;3.53;;;1.13;;
75698;SDS011;64313;51.018;13.742;2023-04-24T04:37:14;2.17;;;0.90;;
75698;SDS011;64313;51.018;13.742;2023-04-24T04:39:51;2.85;;;0.93;;
75698;SDS011;64313;51.018;13.742;2023-04-24T04:42:21;2.63;;;0.80;;
75698;SDS011;64313;51.018;13.742;2023-04-24T04:44:48;2.28;;;0.82;;
75698;SDS011;64313;51.018;13.742;2023-04-24T04:49:46;2.70;;;0.82;;
75698;SDS011;64313;51.018;13.742;2023-04-24T04:52:20;1.70;;;0.70;;
75698;SDS011;64313;51.018;13.742;2023-04-24T04:54:52;1.60;;;0.70;;
75698;SDS011;64313;51.018;13.742;2023-04-24T04:57:18;2.35;;;0.90;;
75698;SDS011;64313;51.018;13.742;2023-04-24T04:59:44;2.53;;;0.80;;
75698;SDS011;64313;51.018;13.742;2023-04-24T05:04:41;1.97;;;0.70;;
75698;SDS011;64313;51.018;13.742;2023-04-24T05:07:06;2.53;;;0.80;;
75698;SDS011;64313;51.018;13.742;2023-04-24T05:09:34;2.58;;;0.90;;
75698;SDS011;64313;51.018;13.742;2023-04-24T05:12:03;2.50;;;0.80;;
75698;SDS011;64313;51.018;13.742;2023-04-24T05:14:33;2.53;;;0.82;;
75698;SDS011;64313;51.018;13.742;2023-04-24T05:16:58;2.20;;;0.90;;
75698;SDS011;64313;51.018;13.742;2023-04-24T05:19:25;2.28;;;1.13;;
75698;SDS011;64313;51.018;13.742;2023-04-24T05:21:50;2.15;;;0.70;;
75698;SDS011;64313;51.018;13.742;2023-04-24T05:24:16;2.25;;;0.85;;
75698;SDS011;64313;51.018;13.742;2023-04-24T05:26:58;2.42;;;0.90;;
75698;SDS011;64313;51.018;13.742;2023-04-24T05:29:29;2.80;;;0.90;;
75698;SDS011;64313;51.018;13.742;2023-04-24T05:31:56;1.95;;;0.80;;
75698;SDS011;64313;51.018;13.742;2023-04-24T05:34:22;1.92;;;0.70;;
75698;SDS011;64313;51.018;13.742;2023-04-24T05:36:52;1.67;;;0.70;;
75698;SDS011;64313;51.018;13.742;2023-04-24T05:39:18;2.75;;;0.80;;
75698;SDS011;64313;51.018;13.742;2023-04-24T05:41:45;1.60;;;0.80;;
75698;SDS011;64313;51.018;13.742;2023-04-24T05:44:10;2.15;;;0.70;;
75698;SDS011;64313;51.018;13.742;2023-04-24T05:46:35;1.52;;;0.65;;
75698;SDS011;64313;51.018;13.742;2023-04-24T05:49:01;2.13;;;0.80;;
75698;SDS011;64313;51.018;13.742;2023-04-24T05:51:27;1.73;;;0.73;;
75698;SDS011;64313;51.018;13.742;2023-04-24T05:53:53;2.00;;;0.75;;
75698;SDS011;64313;51.018;13.742;2023-04-24T05:56:18;1.70;;;0.90;;
75698;SDS011;64313;51.018;13.742;2023-04-24T05:58:44;1.80;;;0.70;;
75698;SDS011;64313;51.018;13.742;2023-04-24T06:01:13;2.15;;;0.70;;
75698;SDS011;64313;51.018;13.742;2023-04-24T06:03:40;3.90;;;0.80;;
75698;SDS011;64313;51.018;13.742;2023-04-24T06:06:06;1.73;;;0.70;;
75698;SDS011;64313;51.018;13.742;2023-04-24T06:08:33;2.10;;;0.70;;
75698;SDS011;64313;51.018;13.742;2023-04-24T06:11:00;2.92;;;0.75;;
75698;SDS011;64313;51.018;13.742;2023-04-24T06:13:25;2.63;;;0.75;;
75698;SDS011;64313;51.018;13.742;2023-04-24T06:16:10;2.83;;;0.70;;
75698;SDS011;64313;51.018;13.742;2023-04-24T06:18:38;1.85;;;0.70;;
75698;SDS011;64313;51.018;13.742;2023-04-24T06:21:04;2.67;;;0.80;;
75698;SDS011;64313;51.018;13.742;2023-04-24T06:23:30;1.58;;;0.70;;
75698;SDS011;64313;51.018;13.742;2023-04-24T06:25:57;1.42;;;0.70;;
75698;SDS011;64313;51.018;13.742;2023-04-24T06:28:23;1.98;;;0.70;;
75698;SDS011;64313;51.018;13.742;2023-04-24T06:30:48;1.85;;;0.70;;
75698;SDS011;64313;51.018;13.742;2023-04-24T06:33:13;2.55;;;0.80;;
75698;SDS011;64313;51.018;13.742;2023-04-24T06:35:39;2.10;;;0.77;;
75698;SDS011;64313;51.018;13.742;2023-04-24T06:38:04;2.63;;;0.70;;
75698;SDS011;64313;51.018;13.742;2023-04-24T06:40:30;1.75;;;0.60;;
75698;SDS011;64313;51.018;13.742;2023-04-24T06:42:55;1.75;;;0.68;;
75698;SDS011;64313;51.018;13.742;2023-04-24T06:45:20;2.58;;;0.70;;
75698;SDS011;64313;51.018;13.742;2023-04-24T06:47:46;1.08;;;0.57;;
75698;SDS011;64313;51.018;13.742;2023-04-24T06:50:11;1.73;;;0.77;;
75698;SDS011;64313;51.018;13.742;2023-04-24T06:52:37;1.45;;;0.60;;
75698;SDS011;64313;51.018;13.742;2023-04-24T06:55:03;2.53;;;0.73;;
75698;SDS011;64313;51.018;13.742;2023-04-24T06:57:29;1.02;;;0.50;;
75698;SDS011;64313;51.018;13.742;2023-04-24T06:59:54;1.55;;;0.70;;
75698;SDS011;64313;51.018;13.742;2023-04-24T07:02:20;2.20;;;0.75;;
75698;SDS011;64313;51.018;13.742;2023-04-24T07:04:45;1.58;;;0.60;;
75698;SDS011;64313;51.018;13.742;2023-04-24T07:07:11;2.40;;;0.70;;
75698;SDS011;64313;51.018;13.742;2023-04-24T07:09:39;2.00;;;0.70;;
75698;SDS011;64313;51.018;13.742;2023-04-24T07:12:06;1.92;;;0.60;;
75698;SDS011;64313;51.018;13.742;2023-04-24T07:14:32;2.88;;;0.80;;
75698;SDS011;64313;51.018;13.742;2023-04-24T07:16:58;2.40;;;0.70;;
75698;SDS011;64313;51.018;13.742;2023-04-24T07:19:24;2.67;;;0.80;;
75698;SDS011;64313;51.018;13.742;2023-04-24T07:21:49;1.27;;;0.50;;
75698;SDS011;64313;51.018;13.742;2023-04-24T07:24:15;1.27;;;0.60;;
75698;SDS011;64313;51.018;13.742;2023-04-24T07:26:40;1.40;;;0.60;;
75698;SDS011;64313;51.018;13.742;2023-04-24T07:29:06;1.65;;;0.60;;
75698;SDS011;64313;51.018;13.742;2023-04-24T07:31:31;2.00;;;0.50;;
75698;SDS011;64313;51.018;13.742;2023-04-24T07:33:57;1.67;;;0.60;;
75698;SDS011;64313;51.018;13.742;2023-04-24T07:36:23;2.08;;;0.50;;
75698;SDS011;64313;51.018;13.742;2023-04-24T07:38:49;1.73;;;0.60;;
75698;SDS011;64313;51.018;13.742;2023-04-24T07:41:14;2.33;;;0.70;;
75698;SDS011;64313;51.018;13.742;2023-04-24T07:43:40;2.40;;;0.73;;
75698;SDS011;64313;51.018;13.742;2023-04-24T07:46:06;1.77;;;0.70;;
75698;SDS011;64313;51.018;13.742;2023-04-24T07:48:32;2.85;;;0.73;;
75698;SDS011;64313;51.018;13.742;2023-04-24T07:50:58;1.85;;;0.70;;
75698;SDS011;64313;51.018;13.742;2023-04-24T07:53:23;2.45;;;0.85;;
75698;SDS011;64313;51.018;13.742;2023-04-24T07:55:48;3.15;;;0.90;;
75698;SDS011;64313;51.018;13.742;2023-04-24T07:58:14;3.65;;;0.80;;
75698;SDS011;64313;51.018;13.742;2023-04-24T08:00:40;1.52;;;0.70;;
75698;SDS011;64313;51.018;13.742;2023-04-24T08:03:05;3.90;;;0.70;;
75698;SDS011;64313;51.018;13.742;2023-04-24T08:05:30;3.35;;;0.80;;
75698;SDS011;64313;51.018;13.742;2023-04-24T08:07:56;1.83;;;0.68;;
75698;SDS011;64313;51.018;13.742;2023-04-24T08:10:22;2.33;;;0.75;;
75698;SDS011;64313;51.018;13.742;2023-04-24T08:12:48;3.30;;;0.70;;
75698;SDS011;64313;51.018;13.742;2023-04-24T08:15:13;1.95;;;0.70;;
75698;SDS011;64313;51.018;13.742;2023-04-24T08:17:38;2.65;;;0.60;;
75698;SDS011;64313;51.018;13.742;2023-04-24T08:20:04;1.88;;;0.60;;
75698;SDS011;64313;51.018;13.742;2023-04-24T08:22:30;0.68;;;0.40;;
75698;SDS011;64313;51.018;13.742;2023-04-24T08:24:56;1.25;;;0.60;;
75698;SDS011;64313;51.018;13.742;2023-04-24T08:27:22;1.67;;;0.63;;
75698;SDS011;64313;51.018;13.742;2023-04-24T08:29:49;2.25;;;0.70;;
75698;SDS011;64313;51.018;13.742;2023-04-24T08:32:14;1.73;;;0.70;;
75698;SDS011;64313;51.018;13.742;2023-04-24T08:34:39;2.13;;;0.57;;
75698;SDS011;64313;51.018;13.742;2023-04-24T08:37:05;2.17;;;0.60;;
75698;SDS011;64313;51.018;13.742;2023-04-24T08:39:30;1.88;;;0.65;;
75698;SDS011;64313;51.018;13.742;2023-04-24T08:41:56;2.33;;;0.68;;
75698;SDS011;64313;51.018;13.742;2023-04-24T08:44:21;3.17;;;0.75;;
75698;SDS011;64313;51.018;13.742;2023-04-24T08:46:50;4.47;;;0.75;;
75698;SDS011;64313;51.018;13.742;2023-04-24T08:49:17;2.30;;;0.52;;
75698;SDS011;64313;51.018;13.742;2023-04-24T08:51:42;3.00;;;0.73;;
75698;SDS011;64313;51.018;13.742;2023-04-24T08:54:08;1.90;;;0.60;;
75698;SDS011;64313;51.018;13.742;2023-04-24T08:56:34;1.88;;;0.60;;
75698;SDS011;64313;51.018;13.742;2023-04-24T08:59:04;3.05;;;0.60;;
75698;SDS011;64313;51.018;13.742;2023-04-24T09:01:31;3.00;;;0.60;;
75698;SDS011;64313;51.018;13.742;2023-04-24T09:04:00;0.93;;;0.40;;
75698;SDS011;64313;51.018;13.742;2023-04-24T09:06:28;2.65;;;0.50;;
75698;SDS011;64313;51.018;13.742;2023-04-24T09:08:55;2.38;;;0.57;;
75698;SDS011;64313;51.018;13.742;2023-04-24T09:11:22;1.08;;;0.40;;
75698;SDS011;64313;51.018;13.742;2023-04-24T09:13:49;1.77;;;0.52;;
75698;SDS011;64313;51.018;13.742;2023-04-24T09:16:15;1.48;;;0.60;;
75698;SDS011;64313;51.018;13.742;2023-04-24T09:18:41;3.33;;;0.70;;
75698;SDS011;64313;51.018;13.742;2023-04-24T09:21:07;3.03;;;0.88;;
75698;SDS011;64313;51.018;13.742;2023-04-24T09:23:33;1.38;;;0.60;;
75698;SDS011;64313;51.018;13.742;2023-04-24T09:25:59;2.45;;;0.63;;
75698;SDS011;64313;51.018;13.742;2023-04-24T09:28:35;1.50;;;0.60;;
75698;SDS011;64313;51.018;13.742;2023-04-24T09:31:23;2.63;;;0.60;;
75698;SDS011;64313;51.018;13.742;2023-04-24T09:33:57;1.63;;;0.60;;
75698;SDS011;64313;51.018;13.742;2023-04-24T09:36:31;1.83;;;0.50;;
75698;SDS011;64313;51.018;13.742;2023-04-24T09:39:04;2.15;;;0.60;;
75698;SDS011;64313;51.018;13.742;2023-04-24T09:41:33;1.35;;;0.50;;
75698;SDS011;64313;51.018;13.742;2023-04-24T09:44:09;1.02;;;0.55;;
75698;SDS011;64313;51.018;13.742;2023-04-24T09:46:40;1.10;;;0.40;;
75698;SDS011;64313;51.018;13.742;2023-04-24T09:49:08;2.85;;;0.73;;
75698;SDS011;64313;51.018;13.742;2023-04-24T09:51:35;1.55;;;0.50;;
75698;SDS011;64313;51.018;13.742;2023-04-24T09:54:02;2.05;;;0.65;;
75698;SDS011;64313;51.018;13.742;2023-04-24T09:56:32;1.60;;;0.63;;
75698;SDS011;64313;51.018;13.742;2023-04-24T09:59:04;2.65;;;0.60;;
75698;SDS011;64313;51.018;13.742;2023-04-24T10:01:32;2.17;;;0.60;;
75698;SDS011;64313;51.018;13.742;2023-04-24T10:03:58;2.45;;;0.70;;
75698;SDS011;64313;51.018;13.742;2023-04-24T10:06:32;2.40;;;0.60;;
75698;SDS011;64313;51.018;13.742;2023-04-24T10:08:58;1.90;;;0.60;;
75698;SDS011;64313;51.018;13.742;2023-04-24T10:11:26;2.03;;;0.60;;
75698;SDS011;64313;51.018;13.742;2023-04-24T10:13:52;1.92;;;0.60;;
75698;SDS011;64313;51.018;13.742;2023-04-24T10:16:17;1.20;;;0.60;;
75698;SDS011;64313;51.018;13.742;2023-04-24T10:18:43;1.45;;;0.52;;
75698;SDS011;64313;51.018;13.742;2023-04-24T10:21:09;2.42;;;0.60;;
75698;SDS011;64313;51.018;13.742;2023-04-24T10:23:35;1.13;;;0.40;;
75698;SDS011;64313;51.018;13.742;2023-04-24T10:26:01;2.53;;;0.70;;
75698;SDS011;64313;51.018;13.742;2023-04-24T10:28:26;1.45;;;0.70;;
75698;SDS011;64313;51.018;13.742;2023-04-24T10:30:54;2.30;;;0.70;;
75698;SDS011;64313;51.018;13.742;2023-04-24T10:33:20;2.60;;;0.80;;
75698;SDS011;64313;51.018;13.742;2023-04-24T10:35:48;2.80;;;0.90;;
75698;SDS011;64313;51.018;13.742;2023-04-24T10:38:16;3.38;;;0.70;;
75698;SDS011;64313;51.018;13.742;2023-04-24T10:40:49;1.50;;;0.60;;
75698;SDS011;64313;51.018;13.742;2023-04-24T10:43:16;0.68;;;0.45;;
75698;SDS011;64313;51.018;13.742;2023-04-24T10:45:42;2.95;;;0.70;;
75698;SDS011;64313;51.018;13.742;2023-04-24T10:48:26;2.45;;;0.60;;
75698;SDS011;64313;51.018;13.742;2023-04-24T10:50:52;2.25;;;0.70;;
75698;SDS011;64313;51.018;13.742;2023-04-24T10:53:22;1.83;;;0.70;;
75698;SDS011;64313;51.018;13.742;2023-04-24T10:55:49;2.00;;;0.70;;
75698;SDS011;64313;51.018;13.742;2023-04-24T10:58:36;1.35;;;0.60;;
75698;SDS011;64313;51.018;13.742;2023-04-24T11:01:03;1.92;;;0.70;;
75698;SDS011;64313;51.018;13.742;2023-04-24T11:03:29;1.40;;;0.55;;
75698;SDS011;64313;51.018;13.742;2023-04-24T11:06:07;0.90;;;0.45;;
75698;SDS011;64313;51.018;13.742;2023-04-24T11:08:43;1.90;;;0.50;;
75698;SDS011;64313;51.018;13.742;2023-04-24T11:11:11;1.75;;;0.70;;
75698;SDS011;64313;51.018;13.742;2023-04-24T11:16:26;2.03;;;0.50;;
75698;SDS011;64313;51.018;13.742;2023-04-24T11:19:08;1.92;;;0.60;;
75698;SDS011;64313;51.018;13.742;2023-04-24T11:29:38;1.67;;;0.60;;
75698;SDS011;64313;51.018;13.742;2023-04-24T11:35:08;2.28;;;0.70;;
75698;SDS011;64313;51.018;13.742;2023-04-24T11:37:39;1.40;;;0.65;;
75698;SDS011;64313;51.018;13.742;2023-04-24T11:40:07;2.00;;;0.73;;
75698;SDS011;64313;51.018;13.742;2023-04-24T11:42:39;1.80;;;0.70;;
75698;SDS011;64313;51.018;13.742;2023-04-24T11:47:35;1.08;;;0.60;;
75698;SDS011;64313;51.018;13.742;2023-04-24T11:50:00;1.60;;;0.57;;
75698;SDS011;64313;51.018;13.742;2023-04-24T11:52:27;1.75;;;0.50;;
75698;SDS011;64313;51.018;13.742;2023-04-24T11:54:52;0.93;;;0.47;;
75698;SDS011;64313;51.018;13.742;2023-04-24T11:57:21;1.65;;;0.60;;
75698;SDS011;64313;51.018;13.742;2023-04-24T11:59:48;1.48;;;0.60;;
75698;SDS011;64313;51.018;13.742;2023-04-24T12:02:19;1.63;;;0.60;;
75698;SDS011;64313;51.018;13.742;2023-04-24T12:04:48;1.83;;;0.70;;
75698;SDS011;64313;51.018;13.742;2023-04-24T12:07:13;1.55;;;0.60;;
75698;SDS011;64313;51.018;13.742;2023-04-24T12:09:55;0.90;;;0.50;;
75698;SDS011;64313;51.018;13.742;2023-04-24T12:14:57;1.67;;;0.70;;
75698;SDS011;64313;51.018;13.742;2023-04-24T12:17:29;1.75;;;0.80;;
75698;SDS011;64313;51.018;13.742;2023-04-24T12:19:59;1.70;;;0.63;;
75698;SDS011;64313;51.018;13.742;2023-04-24T12:22:27;2.78;;;0.60;;
75698;SDS011;64313;51.018;13.742;2023-04-24T12:25:11;2.00;;;0.80;;
75698;SDS011;64313;51.018;13.742;2023-04-24T12:27:37;2.83;;;0.85;;
75698;SDS011;64313;51.018;13.742;2023-04-24T12:30:04;2.85;;;0.85;;
75698;SDS011;64313;51.018;13.742;2023-04-24T12:32:30;2.13;;;0.77;;
75698;SDS011;64313;51.018;13.742;2023-04-24T12:34:56;2.25;;;0.70;;
75698;SDS011;64313;51.018;13.742;2023-04-24T12:37:25;2.38;;;0.65;;
75698;SDS011;64313;51.018;13.742;2023-04-24T12:40:07;3.53;;;0.60;;
75698;SDS011;64313;51.018;13.742;2023-04-24T12:42:34;1.02;;;0.60;;
75698;SDS011;64313;51.018;13.742;2023-04-24T12:45:02;2.05;;;0.77;;
75698;SDS011;64313;51.018;13.742;2023-04-24T12:47:30;2.78;;;0.80;;
75698;SDS011;64313;51.018;13.742;2023-04-24T12:49:56;1.52;;;0.60;;
75698;SDS011;64313;51.018;13.742;2023-04-24T12:52:22;2.88;;;0.70;;
75698;SDS011;64313;51.018;13.742;2023-04-24T12:54:48;1.58;;;0.57;;
75698;SDS011;64313;51.018;13.742;2023-04-24T12:57:16;3.03;;;0.70;;
75698;SDS011;64313;51.018;13.742;2023-04-24T12:59:41;2.33;;;0.60;;
75698;SDS011;64313;51.018;13.742;2023-04-24T13:02:06;1.85;;;0.60;;
75698;SDS011;64313;51.018;13.742;2023-04-24T13:04:32;1.63;;;0.68;;
75698;SDS011;64313;51.018;13.742;2023-04-24T13:06:57;3.00;;;0.77;;
75698;SDS011;64313;51.018;13.742;2023-04-24T13:09:23;2.05;;;0.70;;
75698;SDS011;64313;51.018;13.742;2023-04-24T13:11:48;2.20;;;0.70;;
75698;SDS011;64313;51.018;13.742;2023-04-24T13:14:14;3.17;;;0.85;;
75698;SDS011;64313;51.018;13.742;2023-04-24T13:16:40;3.88;;;0.65;;
75698;SDS011;64313;51.018;13.742;2023-04-24T13:19:08;1.73;;;0.80;;
75698;SDS011;64313;51.018;13.742;2023-04-24T13:21:33;1.77;;;0.60;;
75698;SDS011;64313;51.018;13.742;2023-04-24T13:24:02;1.50;;;0.63;;
75698;SDS011;64313;51.018;13.742;2023-04-24T13:26:42;2.03;;;0.70;;
75698;SDS011;64313;51.018;13.742;2023-04-24T13:29:08;1.40;;;0.65;;
75698;SDS011;64313;51.018;13.742;2023-04-24T13:31:34;2.00;;;0.80;;
75698;SDS011;64313;51.018;13.742;2023-04-24T13:34:02;1.58;;;0.70;;
75698;SDS011;64313;51.018;13.742;2023-04-24T13:36:28;1.35;;;0.70;;
75698;SDS011;64313;51.018;13.742;2023-04-24T13:38:56;3.90;;;1.00;;
75698;SDS011;64313;51.018;13.742;2023-04-24T13:41:22;3.03;;;0.90;;
75698;SDS011;64313;51.018;13.742;2023-04-24T13:43:47;2.63;;;0.80;;
75698;SDS011;64313;51.018;13.742;2023-04-24T13:46:13;2.15;;;0.80;;
75698;SDS011;64313;51.018;13.742;2023-04-24T13:48:38;3.42;;;0.80;;
75698;SDS011;64313;51.018;13.742;2023-04-24T13:51:03;3.58;;;0.93;;
75698;SDS011;64313;51.018;13.742;2023-04-24T13:53:29;2.25;;;0.80;;
75698;SDS011;64313;51.018;13.742;2023-04-24T13:55:54;4.32;;;0.80;;
75698;SDS011;64313;51.018;13.742;2023-04-24T13:58:19;4.28;;;0.80;;
75698;SDS011;64313;51.018;13.742;2023-04-24T14:00:45;2.72;;;0.70;;
75698;SDS011;64313;51.018;13.742;2023-04-24T14:03:11;2.00;;;0.80;;
75698;SDS011;64313;51.018;13.742;2023-04-24T14:05:36;1.45;;;0.77;;
75698;SDS011;64313;51.018;13.742;2023-04-24T14:08:02;1.98;;;0.80;;
75698;SDS011;64313;51.018;13.742;2023-04-24T14:10:27;2.00;;;0.70;;
75698;SDS011;64313;51.018;13.742;2023-04-24T14:12:55;1.60;;;0.77;;
75698;SDS011;64313;51.018;13.742;2023-04-24T14:15:21;2.10;;;0.70;;
75698;SDS011;64313;51.018;13.742;2023-04-24T14:17:47;2.25;;;0.85;;
75698;SDS011;64313;51.018;13.742;2023-04-24T14:20:13;2.22;;;0.70;;
75698;SDS011;64313;51.018;13.742;2023-04-24T14:22:38;1.42;;;0.70;;
75698;SDS011;64313;51.018;13.742;2023-04-24T14:25:04;2.83;;;0.90;;
75698;SDS011;64313;51.018;13.742;2023-04-24T14:27:30;2.72;;;0.93;;
75698;SDS011;64313;51.018;13.742;2023-04-24T14:29:56;2.35;;;0.90;;
75698;SDS011;64313;51.018;13.742;2023-04-24T14:32:22;2.42;;;0.80;;
75698;SDS011;64313;51.018;13.742;2023-04-24T14:34:47;3.63;;;1.00;;
75698;SDS011;64313;51.018;13.742;2023-04-24T14:37:13;2.90;;;0.90;;
75698;SDS011;64313;51.018;13.742;2023-04-24T14:39:38;2.13;;;0.80;;
75698;SDS011;64313;51.018;13.742;2023-04-24T14:42:03;3.20;;;1.00;;
75698;SDS011;64313;51.018;13.742;2023-04-24T14:44:28;4.38;;;0.90;;
75698;SDS011;64313;51.018;13.742;2023-04-24T14:46:54;3.13;;;1.00;;
75698;SDS011;64313;51.018;13.742;2023-04-24T14:49:20;1.70;;;0.80;;
75698;SDS011;64313;51.018;13.742;2023-04-24T14:51:45;2.10;;;0.80;;
75698;SDS011;64313;51.018;13.742;2023-04-24T14:54:10;2.95;;;0.80;;
75698;SDS011;64313;51.018;13.742;2023-04-24T14:56:36;2.03;;;0.88;;